sensor_id;sensor_type;location;lat;lon;timestamp;pressure;altitude;pressure_sealevel;temperature;humidity
23341;BME280;12239;53.404;23.492;2023-02-03T00:01:11;99621.19;;;-3.63;100.00
23341;BME280;12239;53.404;23.492;2023-02-03T00:03:38;99624.23;;;-3.64;100.00
23341;BME280;12239;53.404;23.492;2023-02-03T00:06:07;99626.95;;;-3.67;100.00
23341;BME280;12239;53.404;23.492;2023-02-03T00:08:34;99627.84;;;-3.68;100.00
23341;BME280;12239;53.404;23.492;2023-02-03T00:11:02;99629.98;;;-3.70;100.00
23341;BME280;12239;53.404;23.492;2023-02-03T00:13:29;99631.02;;;-3.72;100.00
23341;BME280;12239;53.404;23.492;2023-02-03T00:15:56;99639.17;;;-3.74;100.00
23341;BME280;12239;53.404;23.492;2023-02-03T00:18:24;99647.41;;;-3.76;100.00
23341;BME280;12239;53.404;23.492;2023-02-03T00:20:51;99655.73;;;-3.78;100.00
23341;BME280;12239;53.404;23.492;2023-02-03T00:23:18;99658.38;;;-3.81;100.00
23341;BME280;12239;53.404;23.492;2023-02-03T00:25:45;99661.03;;;-3.84;100.00
23341;BME280;12239;53.404;23.492;2023-02-03T00:28:13;99661.95;;;-3.87;100.00
23341;BME280;12239;53.404;23.492;2023-02-03T00:30:40;99677.23;;;-3.86;100.00
23341;BME280;12239;53.404;23.492;2023-02-03T00:33:07;99677.96;;;-3.85;100.00
23341;BME280;12239;53.404;23.492;2023-02-03T00:35:36;99679.23;;;-3.84;100.00
23341;BME280;12239;53.404;23.492;2023-02-03T00:38:04;99677.98;;;-3.83;100.00
23341;BME280;12239;53.404;23.492;2023-02-03T00:40:31;99670.55;;;-3.83;100.00
23341;BME280;12239;53.404;23.492;2023-02-03T00:42:58;99670.63;;;-3.81;100.00
23341;BME280;12239;53.404;23.492;2023-02-03T00:45:25;99669.96;;;-3.80;100.00
23341;BME280;12239;53.404;23.492;2023-02-03T00:47:52;99677.13;;;-3.78;100.00
23341;BME280;12239;53.404;23.492;2023-02-03T00:50:19;99669.98;;;-3.77;100.00
23341;BME280;12239;53.404;23.492;2023-02-03T00:52:47;99675.33;;;-3.73;100.00
23341;BME280;12239;53.404;23.492;2023-02-03T00:55:14;99674.22;;;-3.72;100.00
23341;BME280;12239;53.404;23.492;2023-02-03T00:57:42;99660.33;;;-3.68;100.00
23341;BME280;12239;53.404;23.492;2023-02-03T01:00:10;99666.56;;;-3.66;100.00
23341;BME280;12239;53.404;23.492;2023-02-03T01:02:37;99668.94;;;-3.63;100.00
23341;BME280;12239;53.404;23.492;2023-02-03T01:05:06;99671.87;;;-3.60;100.00
23341;BME280;12239;53.404;23.492;2023-02-03T01:07:33;99672.95;;;-3.56;100.00
23341;BME280;12239;53.404;23.492;2023-02-03T01:10:00;99665.66;;;-3.54;100.00
23341;BME280;12239;53.404;23.492;2023-02-03T01:12:28;99668.06;;;-3.52;100.00
23341;BME280;12239;53.404;23.492;2023-02-03T01:14:55;99672.38;;;-3.48;100.00
23341;BME280;12239;53.404;23.492;2023-02-03T01:17:22;99673.20;;;-3.47;100.00
23341;BME280;12239;53.404;23.492;2023-02-03T01:19:50;99681.05;;;-3.44;100.00
23341;BME280;12239;53.404;23.492;2023-02-03T01:22:17;99682.81;;;-3.42;100.00
23341;BME280;12239;53.404;23.492;2023-02-03T01:24:44;99683.66;;;-3.40;100.00
23341;BME280;12239;53.404;23.492;2023-02-03T01:27:12;99689.75;;;-3.39;100.00
23341;BME280;12239;53.404;23.492;2023-02-03T01:29:42;99688.94;;;-3.38;100.00
23341;BME280;12239;53.404;23.492;2023-02-03T01:32:09;99691.01;;;-3.37;100.00
23341;BME280;12239;53.404;23.492;2023-02-03T01:34:36;99691.66;;;-3.36;100.00
23341;BME280;12239;53.404;23.492;2023-02-03T01:37:04;99690.28;;;-3.36;100.00
23341;BME280;12239;53.404;23.492;2023-02-03T01:39:31;99688.67;;;-3.36;100.00
23341;BME280;12239;53.404;23.492;2023-02-03T01:41:58;99694.46;;;-3.34;100.00
23341;BME280;12239;53.404;23.492;2023-02-03T01:44:34;99692.20;;;-3.35;100.00
23341;BME280;12239;53.404;23.492;2023-02-03T01:47:04;99692.27;;;-3.35;100.00
23341;BME280;12239;53.404;23.492;2023-02-03T01:49:36;99698.20;;;-3.35;100.00
23341;BME280;12239;53.404;23.492;2023-02-03T01:52:06;99695.52;;;-3.33;100.00
23341;BME280;12239;53.404;23.492;2023-02-03T01:54:34;99693.42;;;-3.33;100.00
23341;BME280;12239;53.404;23.492;2023-02-03T01:57:05;99695.16;;;-3.30;100.00
23341;BME280;12239;53.404;23.492;2023-02-03T01:59:33;99693.04;;;-3.30;100.00
23341;BME280;12239;53.404;23.492;2023-02-03T02:02:05;99693.90;;;-3.29;100.00
23341;BME280;12239;53.404;23.492;2023-02-03T02:04:35;99686.08;;;-3.29;100.00
23341;BME280;12239;53.404;23.492;2023-02-03T02:07:05;99690.02;;;-3.28;100.00
23341;BME280;12239;53.404;23.492;2023-02-03T02:09:34;99696.45;;;-3.27;100.00
23341;BME280;12239;53.404;23.492;2023-02-03T02:12:02;99696.48;;;-3.25;100.00
23341;BME280;12239;53.404;23.492;2023-02-03T02:14:29;99698.20;;;-3.24;100.00
23341;BME280;12239;53.404;23.492;2023-02-03T02:16:58;99701.61;;;-3.21;100.00
23341;BME280;12239;53.404;23.492;2023-02-03T02:19:37;99694.66;;;-3.20;100.00
23341;BME280;12239;53.404;23.492;2023-02-03T02:22:11;99695.19;;;-3.20;100.00
23341;BME280;12239;53.404;23.492;2023-02-03T02:27:28;99691.48;;;-3.23;100.00
23341;BME280;12239;53.404;23.492;2023-02-03T02:30:10;99693.75;;;-3.23;100.00
23341;BME280;12239;53.404;23.492;2023-02-03T02:32:48;99691.33;;;-3.23;100.00
23341;BME280;12239;53.404;23.492;2023-02-03T02:35:23;99694.35;;;-3.24;100.00
23341;BME280;12239;53.404;23.492;2023-02-03T02:37:58;99688.14;;;-3.23;100.00
23341;BME280;12239;53.404;23.492;2023-02-03T02:40:30;99689.33;;;-3.26;100.00
23341;BME280;12239;53.404;23.492;2023-02-03T02:43:01;99692.36;;;-3.26;100.00
23341;BME280;12239;53.404;23.492;2023-02-03T02:45:31;99693.73;;;-3.26;100.00
23341;BME280;12239;53.404;23.492;2023-02-03T02:48:01;99685.36;;;-3.28;100.00
23341;BME280;12239;53.404;23.492;2023-02-03T02:50:32;99684.50;;;-3.29;100.00
23341;BME280;12239;53.404;23.492;2023-02-03T02:53:01;99689.27;;;-3.31;100.00
23341;BME280;12239;53.404;23.492;2023-02-03T02:55:30;99685.98;;;-3.31;100.00
23341;BME280;12239;53.404;23.492;2023-02-03T02:57:59;99686.05;;;-3.32;100.00
23341;BME280;12239;53.404;23.492;2023-02-03T03:00:29;99687.89;;;-3.31;100.00
23341;BME280;12239;53.404;23.492;2023-02-03T03:02:56;99682.09;;;-3.29;100.00
23341;BME280;12239;53.404;23.492;2023-02-03T03:05:23;99683.05;;;-3.29;100.00
23341;BME280;12239;53.404;23.492;2023-02-03T03:07:54;99675.08;;;-3.28;100.00
23341;BME280;12239;53.404;23.492;2023-02-03T03:10:22;99678.02;;;-3.28;100.00
23341;BME280;12239;53.404;23.492;2023-02-03T03:12:53;99669.00;;;-3.27;100.00
23341;BME280;12239;53.404;23.492;2023-02-03T03:15:23;99668.27;;;-3.27;100.00
23341;BME280;12239;53.404;23.492;2023-02-03T03:17:52;99668.68;;;-3.26;100.00
23341;BME280;12239;53.404;23.492;2023-02-03T03:20:22;99671.16;;;-3.25;100.00
23341;BME280;12239;53.404;23.492;2023-02-03T03:22:51;99677.14;;;-3.25;100.00
23341;BME280;12239;53.404;23.492;2023-02-03T03:25:21;99681.15;;;-3.26;100.00
23341;BME280;12239;53.404;23.492;2023-02-03T03:27:51;99678.56;;;-3.24;100.00
23341;BME280;12239;53.404;23.492;2023-02-03T03:30:22;99676.99;;;-3.24;100.00
23341;BME280;12239;53.404;23.492;2023-02-03T03:32:51;99673.10;;;-3.23;100.00
23341;BME280;12239;53.404;23.492;2023-02-03T03:35:19;99671.30;;;-3.22;100.00
23341;BME280;12239;53.404;23.492;2023-02-03T03:37:48;99674.42;;;-3.20;100.00
23341;BME280;12239;53.404;23.492;2023-02-03T03:40:19;99678.80;;;-3.19;100.00
23341;BME280;12239;53.404;23.492;2023-02-03T03:42:48;99678.71;;;-3.18;100.00
23341;BME280;12239;53.404;23.492;2023-02-03T03:45:17;99676.69;;;-3.17;100.00
23341;BME280;12239;53.404;23.492;2023-02-03T03:47:50;99675.56;;;-3.16;100.00
23341;BME280;12239;53.404;23.492;2023-02-03T03:50:20;99677.80;;;-3.14;100.00
23341;BME280;12239;53.404;23.492;2023-02-03T03:52:49;99679.18;;;-3.11;100.00
23341;BME280;12239;53.404;23.492;2023-02-03T03:55:18;99677.63;;;-3.09;100.00
23341;BME280;12239;53.404;23.492;2023-02-03T03:57:48;99676.21;;;-3.06;100.00
23341;BME280;12239;53.404;23.492;2023-02-03T04:00:19;99678.83;;;-3.03;100.00
23341;BME280;12239;53.404;23.492;2023-02-03T04:02:49;99679.02;;;-3.02;100.00
23341;BME280;12239;53.404;23.492;2023-02-03T04:05:17;99675.67;;;-3.02;100.00
23341;BME280;12239;53.404;23.492;2023-02-03T04:07:45;99669.80;;;-3.03;100.00
23341;BME280;12239;53.404;23.492;2023-02-03T04:10:15;99670.80;;;-3.03;100.00
23341;BME280;12239;53.404;23.492;2023-02-03T04:12:44;99670.73;;;-3.02;100.00
23341;BME280;12239;53.404;23.492;2023-02-03T04:15:11;99672.86;;;-3.02;100.00
23341;BME280;12239;53.404;23.492;2023-02-03T04:17:39;99679.86;;;-3.03;100.00
23341;BME280;12239;53.404;23.492;2023-02-03T04:20:07;99677.44;;;-3.05;100.00
23341;BME280;12239;53.404;23.492;2023-02-03T04:22:35;99683.52;;;-3.04;100.00
23341;BME280;12239;53.404;23.492;2023-02-03T04:25:02;99686.75;;;-3.04;100.00
23341;BME280;12239;53.404;23.492;2023-02-03T04:27:30;99685.26;;;-3.03;100.00
23341;BME280;12239;53.404;23.492;2023-02-03T04:29:57;99685.30;;;-3.03;100.00
23341;BME280;12239;53.404;23.492;2023-02-03T04:32:24;99689.27;;;-3.04;100.00
23341;BME280;12239;53.404;23.492;2023-02-03T04:34:51;99690.12;;;-3.04;100.00
23341;BME280;12239;53.404;23.492;2023-02-03T04:37:19;99694.45;;;-3.03;100.00
23341;BME280;12239;53.404;23.492;2023-02-03T04:39:48;99690.20;;;-3.02;100.00
23341;BME280;12239;53.404;23.492;2023-02-03T04:42:17;99698.52;;;-3.01;100.00
23341;BME280;12239;53.404;23.492;2023-02-03T04:44:45;99704.29;;;-3.01;100.00
23341;BME280;12239;53.404;23.492;2023-02-03T04:47:12;99703.70;;;-3.00;100.00
23341;BME280;12239;53.404;23.492;2023-02-03T04:49:40;99706.54;;;-2.98;100.00
23341;BME280;12239;53.404;23.492;2023-02-03T04:52:07;99708.73;;;-2.96;100.00
23341;BME280;12239;53.404;23.492;2023-02-03T04:54:34;99704.11;;;-2.94;100.00
23341;BME280;12239;53.404;23.492;2023-02-03T04:57:02;99704.53;;;-2.93;100.00
23341;BME280;12239;53.404;23.492;2023-02-03T04:59:29;99703.77;;;-2.93;100.00
23341;BME280;12239;53.404;23.492;2023-02-03T05:01:56;99702.02;;;-2.93;100.00
23341;BME280;12239;53.404;23.492;2023-02-03T05:04:24;99706.00;;;-2.94;100.00
23341;BME280;12239;53.404;23.492;2023-02-03T05:06:51;99711.13;;;-2.93;100.00
23341;BME280;12239;53.404;23.492;2023-02-03T05:09:19;99708.92;;;-2.90;100.00
23341;BME280;12239;53.404;23.492;2023-02-03T05:11:46;99711.84;;;-2.90;100.00
23341;BME280;12239;53.404;23.492;2023-02-03T05:14:13;99707.46;;;-2.88;100.00
23341;BME280;12239;53.404;23.492;2023-02-03T05:16:43;99706.42;;;-2.87;100.00
23341;BME280;12239;53.404;23.492;2023-02-03T05:19:10;99711.13;;;-2.86;100.00
23341;BME280;12239;53.404;23.492;2023-02-03T05:21:38;99712.10;;;-2.84;100.00
23341;BME280;12239;53.404;23.492;2023-02-03T05:24:06;99714.38;;;-2.81;100.00
23341;BME280;12239;53.404;23.492;2023-02-03T05:26:33;99716.21;;;-2.79;100.00
23341;BME280;12239;53.404;23.492;2023-02-03T05:29:01;99713.14;;;-2.77;100.00
23341;BME280;12239;53.404;23.492;2023-02-03T05:31:28;99710.02;;;-2.76;100.00
23341;BME280;12239;53.404;23.492;2023-02-03T05:33:55;99708.41;;;-2.76;100.00
23341;BME280;12239;53.404;23.492;2023-02-03T05:36:23;99698.61;;;-2.76;100.00
23341;BME280;12239;53.404;23.492;2023-02-03T05:38:51;99700.25;;;-2.75;100.00
23341;BME280;12239;53.404;23.492;2023-02-03T05:41:18;99700.14;;;-2.74;100.00
23341;BME280;12239;53.404;23.492;2023-02-03T05:44:06;99701.08;;;-2.73;100.00
23341;BME280;12239;53.404;23.492;2023-02-03T05:46:33;99713.08;;;-2.71;100.00
23341;BME280;12239;53.404;23.492;2023-02-03T05:49:00;99716.04;;;-2.71;100.00
23341;BME280;12239;53.404;23.492;2023-02-03T05:51:27;99718.11;;;-2.70;100.00
23341;BME280;12239;53.404;23.492;2023-02-03T05:53:55;99713.90;;;-2.70;100.00
23341;BME280;12239;53.404;23.492;2023-02-03T05:56:22;99711.41;;;-2.71;100.00
23341;BME280;12239;53.404;23.492;2023-02-03T05:58:49;99713.89;;;-2.70;100.00
23341;BME280;12239;53.404;23.492;2023-02-03T06:01:18;99711.94;;;-2.70;100.00
23341;BME280;12239;53.404;23.492;2023-02-03T06:03:46;99714.19;;;-2.70;100.00
23341;BME280;12239;53.404;23.492;2023-02-03T06:06:14;99710.65;;;-2.68;100.00
23341;BME280;12239;53.404;23.492;2023-02-03T06:08:41;99704.27;;;-2.68;100.00
23341;BME280;12239;53.404;23.492;2023-02-03T06:11:09;99711.88;;;-2.65;100.00
23341;BME280;12239;53.404;23.492;2023-02-03T06:13:36;99707.52;;;-2.66;100.00
23341;BME280;12239;53.404;23.492;2023-02-03T06:16:03;99711.27;;;-2.64;100.00
23341;BME280;12239;53.404;23.492;2023-02-03T06:18:31;99713.64;;;-2.61;100.00
23341;BME280;12239;53.404;23.492;2023-02-03T06:20:58;99712.63;;;-2.59;100.00
23341;BME280;12239;53.404;23.492;2023-02-03T06:23:25;99710.57;;;-2.56;100.00
23341;BME280;12239;53.404;23.492;2023-02-03T06:25:52;99712.64;;;-2.55;100.00
23341;BME280;12239;53.404;23.492;2023-02-03T06:28:19;99707.36;;;-2.55;100.00
23341;BME280;12239;53.404;23.492;2023-02-03T06:30:48;99710.41;;;-2.53;100.00
23341;BME280;12239;53.404;23.492;2023-02-03T06:33:17;99704.41;;;-2.51;100.00
23341;BME280;12239;53.404;23.492;2023-02-03T06:35:44;99698.83;;;-2.50;100.00
23341;BME280;12239;53.404;23.492;2023-02-03T06:38:12;99692.64;;;-2.48;100.00
23341;BME280;12239;53.404;23.492;2023-02-03T06:40:39;99686.48;;;-2.47;100.00
23341;BME280;12239;53.404;23.492;2023-02-03T06:43:06;99683.96;;;-2.44;100.00
23341;BME280;12239;53.404;23.492;2023-02-03T06:45:33;99676.10;;;-2.40;100.00
23341;BME280;12239;53.404;23.492;2023-02-03T06:48:00;99679.73;;;-2.35;100.00
23341;BME280;12239;53.404;23.492;2023-02-03T06:50:28;99680.82;;;-2.32;100.00
23341;BME280;12239;53.404;23.492;2023-02-03T06:52:55;99679.09;;;-2.28;100.00
23341;BME280;12239;53.404;23.492;2023-02-03T06:55:22;99680.02;;;-2.24;100.00
23341;BME280;12239;53.404;23.492;2023-02-03T06:57:50;99679.69;;;-2.20;100.00
23341;BME280;12239;53.404;23.492;2023-02-03T07:00:18;99677.02;;;-2.19;100.00
23341;BME280;12239;53.404;23.492;2023-02-03T07:02:51;99676.86;;;-2.16;100.00
23341;BME280;12239;53.404;23.492;2023-02-03T07:05:18;99673.05;;;-2.14;100.00
23341;BME280;12239;53.404;23.492;2023-02-03T07:07:47;99669.08;;;-2.11;100.00
23341;BME280;12239;53.404;23.492;2023-02-03T07:10:14;99668.05;;;-2.07;100.00
23341;BME280;12239;53.404;23.492;2023-02-03T07:12:42;99667.65;;;-2.05;100.00
23341;BME280;12239;53.404;23.492;2023-02-03T07:15:10;99668.18;;;-2.03;100.00
23341;BME280;12239;53.404;23.492;2023-02-03T07:17:37;99666.67;;;-1.98;100.00
23341;BME280;12239;53.404;23.492;2023-02-03T07:20:05;99662.08;;;-1.94;100.00
23341;BME280;12239;53.404;23.492;2023-02-03T07:22:36;99658.97;;;-1.95;100.00
23341;BME280;12239;53.404;23.492;2023-02-03T07:25:04;99660.88;;;-1.95;100.00
23341;BME280;12239;53.404;23.492;2023-02-03T07:27:32;99662.05;;;-1.93;100.00
23341;BME280;12239;53.404;23.492;2023-02-03T07:29:59;99661.36;;;-1.94;100.00
23341;BME280;12239;53.404;23.492;2023-02-03T07:32:26;99658.08;;;-1.95;100.00
23341;BME280;12239;53.404;23.492;2023-02-03T07:34:53;99658.27;;;-1.94;100.00
23341;BME280;12239;53.404;23.492;2023-02-03T07:37:41;99657.67;;;-1.89;100.00
23341;BME280;12239;53.404;23.492;2023-02-03T07:40:09;99661.55;;;-1.84;100.00
23341;BME280;12239;53.404;23.492;2023-02-03T07:42:38;99657.54;;;-1.83;100.00
23341;BME280;12239;53.404;23.492;2023-02-03T07:45:08;99648.93;;;-1.79;100.00
23341;BME280;12239;53.404;23.492;2023-02-03T07:47:35;99645.85;;;-1.76;100.00
23341;BME280;12239;53.404;23.492;2023-02-03T07:50:03;99642.78;;;-1.70;100.00
23341;BME280;12239;53.404;23.492;2023-02-03T07:52:30;99642.83;;;-1.65;100.00
23341;BME280;12239;53.404;23.492;2023-02-03T07:54:58;99639.00;;;-1.62;100.00
23341;BME280;12239;53.404;23.492;2023-02-03T07:57:25;99640.46;;;-1.66;100.00
23341;BME280;12239;53.404;23.492;2023-02-03T07:59:52;99642.30;;;-1.70;100.00
23341;BME280;12239;53.404;23.492;2023-02-03T08:02:20;99643.40;;;-1.75;100.00
23341;BME280;12239;53.404;23.492;2023-02-03T08:04:47;99645.04;;;-1.79;100.00
23341;BME280;12239;53.404;23.492;2023-02-03T08:07:14;99644.43;;;-1.80;100.00
23341;BME280;12239;53.404;23.492;2023-02-03T08:09:41;99642.11;;;-1.81;100.00
23341;BME280;12239;53.404;23.492;2023-02-03T08:12:11;99639.85;;;-1.81;100.00
23341;BME280;12239;53.404;23.492;2023-02-03T08:14:38;99634.29;;;-1.81;100.00
23341;BME280;12239;53.404;23.492;2023-02-03T08:17:06;99635.18;;;-1.80;100.00
23341;BME280;12239;53.404;23.492;2023-02-03T08:19:33;99631.98;;;-1.78;100.00
23341;BME280;12239;53.404;23.492;2023-02-03T08:22:03;99635.86;;;-1.75;100.00
23341;BME280;12239;53.404;23.492;2023-02-03T08:24:30;99631.11;;;-1.72;100.00
23341;BME280;12239;53.404;23.492;2023-02-03T08:26:57;99632.63;;;-1.66;100.00
23341;BME280;12239;53.404;23.492;2023-02-03T08:29:26;99640.41;;;-1.57;100.00
23341;BME280;12239;53.404;23.492;2023-02-03T08:31:54;99639.80;;;-1.51;100.00
23341;BME280;12239;53.404;23.492;2023-02-03T08:34:21;99641.07;;;-1.44;100.00
23341;BME280;12239;53.404;23.492;2023-02-03T08:36:48;99637.98;;;-1.35;100.00
23341;BME280;12239;53.404;23.492;2023-02-03T08:39:15;99634.15;;;-1.30;100.00
23341;BME280;12239;53.404;23.492;2023-02-03T08:41:43;99631.63;;;-1.20;100.00
23341;BME280;12239;53.404;23.492;2023-02-03T08:44:10;99623.27;;;-0.94;100.00
23341;BME280;12239;53.404;23.492;2023-02-03T08:46:37;99620.26;;;-0.85;100.00
23341;BME280;12239;53.404;23.492;2023-02-03T08:49:09;99617.69;;;-0.92;100.00
23341;BME280;12239;53.404;23.492;2023-02-03T08:51:36;99612.11;;;-1.04;100.00
23341;BME280;12239;53.404;23.492;2023-02-03T08:54:03;99610.48;;;-1.13;100.00
23341;BME280;12239;53.404;23.492;2023-02-03T08:56:31;99610.70;;;-1.17;100.00
23341;BME280;12239;53.404;23.492;2023-02-03T08:58:59;99610.63;;;-1.14;100.00
23341;BME280;12239;53.404;23.492;2023-02-03T09:01:26;99608.60;;;-1.09;100.00
23341;BME280;12239;53.404;23.492;2023-02-03T09:03:54;99605.62;;;-1.06;100.00
23341;BME280;12239;53.404;23.492;2023-02-03T09:06:21;99603.15;;;-1.07;100.00
23341;BME280;12239;53.404;23.492;2023-02-03T09:08:48;99596.91;;;-1.11;100.00
23341;BME280;12239;53.404;23.492;2023-02-03T09:11:16;99604.08;;;-1.16;100.00
23341;BME280;12239;53.404;23.492;2023-02-03T09:13:44;99603.73;;;-1.28;100.00
23341;BME280;12239;53.404;23.492;2023-02-03T09:16:11;99602.48;;;-1.34;100.00
23341;BME280;12239;53.404;23.492;2023-02-03T09:18:39;99600.41;;;-1.31;100.00
23341;BME280;12239;53.404;23.492;2023-02-03T09:21:09;99597.92;;;-1.29;100.00
23341;BME280;12239;53.404;23.492;2023-02-03T09:26:39;99593.40;;;-1.17;100.00
23341;BME280;12239;53.404;23.492;2023-02-03T09:29:09;99591.20;;;-1.13;100.00
23341;BME280;12239;53.404;23.492;2023-02-03T09:31:39;99590.90;;;-1.11;100.00
23341;BME280;12239;53.404;23.492;2023-02-03T09:34:08;99587.64;;;-1.09;100.00
23341;BME280;12239;53.404;23.492;2023-02-03T09:36:37;99583.67;;;-1.00;100.00
23341;BME280;12239;53.404;23.492;2023-02-03T09:39:07;99582.19;;;-0.89;100.00
23341;BME280;12239;53.404;23.492;2023-02-03T09:42:00;99582.38;;;-0.74;100.00
23341;BME280;12239;53.404;23.492;2023-02-03T09:44:35;99579.56;;;-0.65;100.00
23341;BME280;12239;53.404;23.492;2023-02-03T09:47:10;99578.77;;;-0.63;100.00
23341;BME280;12239;53.404;23.492;2023-02-03T09:49:41;99574.46;;;-0.65;100.00
23341;BME280;12239;53.404;23.492;2023-02-03T09:52:12;99571.66;;;-0.67;100.00
23341;BME280;12239;53.404;23.492;2023-02-03T09:54:44;99565.75;;;-0.72;100.00
23341;BME280;12239;53.404;23.492;2023-02-03T09:57:18;99563.64;;;-0.72;100.00
23341;BME280;12239;53.404;23.492;2023-02-03T09:59:48;99558.55;;;-0.69;100.00
23341;BME280;12239;53.404;23.492;2023-02-03T10:02:24;99556.13;;;-0.62;100.00
23341;BME280;12239;53.404;23.492;2023-02-03T10:04:58;99549.84;;;-0.65;100.00
23341;BME280;12239;53.404;23.492;2023-02-03T10:07:30;99548.29;;;-0.64;100.00
23341;BME280;12239;53.404;23.492;2023-02-03T10:10:07;99543.94;;;-0.58;100.00
23341;BME280;12239;53.404;23.492;2023-02-03T10:13:14;99542.89;;;-0.53;100.00
23341;BME280;12239;53.404;23.492;2023-02-03T10:15:54;99535.91;;;-0.60;100.00
23341;BME280;12239;53.404;23.492;2023-02-03T10:18:27;99528.73;;;-0.60;100.00
23341;BME280;12239;53.404;23.492;2023-02-03T10:20:58;99522.62;;;-0.61;100.00
23341;BME280;12239;53.404;23.492;2023-02-03T10:23:45;99515.55;;;-0.62;100.00
23341;BME280;12239;53.404;23.492;2023-02-03T10:26:17;99508.05;;;-0.58;100.00
23341;BME280;12239;53.404;23.492;2023-02-03T10:28:50;99495.14;;;-0.54;100.00
23341;BME280;12239;53.404;23.492;2023-02-03T10:31:22;99487.81;;;-0.50;100.00
23341;BME280;12239;53.404;23.492;2023-02-03T10:33:57;99483.73;;;-0.49;100.00
23341;BME280;12239;53.404;23.492;2023-02-03T10:36:31;99482.58;;;-0.51;100.00
23341;BME280;12239;53.404;23.492;2023-02-03T10:39:02;99479.85;;;-0.51;100.00
23341;BME280;12239;53.404;23.492;2023-02-03T10:41:35;99482.04;;;-0.50;100.00
23341;BME280;12239;53.404;23.492;2023-02-03T10:44:07;99476.80;;;-0.50;100.00
23341;BME280;12239;53.404;23.492;2023-02-03T10:46:39;99474.63;;;-0.49;100.00
23341;BME280;12239;53.404;23.492;2023-02-03T10:49:10;99470.50;;;-0.45;100.00
23341;BME280;12239;53.404;23.492;2023-02-03T10:51:42;99467.73;;;-0.46;100.00
23341;BME280;12239;53.404;23.492;2023-02-03T10:54:29;99463.88;;;-0.51;100.00
23341;BME280;12239;53.404;23.492;2023-02-03T10:57:02;99460.31;;;-0.57;100.00
23341;BME280;12239;53.404;23.492;2023-02-03T10:59:35;99465.30;;;-0.60;100.00
23341;BME280;12239;53.404;23.492;2023-02-03T11:02:07;99455.22;;;-0.60;100.00
23341;BME280;12239;53.404;23.492;2023-02-03T11:04:37;99447.94;;;-0.59;100.00
23341;BME280;12239;53.404;23.492;2023-02-03T11:07:08;99442.36;;;-0.60;100.00
23341;BME280;12239;53.404;23.492;2023-02-03T11:09:53;99438.85;;;-0.61;100.00
23341;BME280;12239;53.404;23.492;2023-02-03T11:12:22;99435.98;;;-0.63;100.00
23341;BME280;12239;53.404;23.492;2023-02-03T11:14:54;99428.80;;;-0.67;100.00
23341;BME280;12239;53.404;23.492;2023-02-03T11:17:24;99427.36;;;-0.71;100.00
23341;BME280;12239;53.404;23.492;2023-02-03T11:19:54;99425.42;;;-0.68;100.00
23341;BME280;12239;53.404;23.492;2023-02-03T11:22:27;99417.99;;;-0.66;100.00
23341;BME280;12239;53.404;23.492;2023-02-03T11:24:58;99414.52;;;-0.62;100.00
23341;BME280;12239;53.404;23.492;2023-02-03T11:27:29;99405.38;;;-0.60;100.00
23341;BME280;12239;53.404;23.492;2023-02-03T11:30:08;99404.63;;;-0.57;100.00
23341;BME280;12239;53.404;23.492;2023-02-03T11:32:39;99400.70;;;-0.55;100.00
23341;BME280;12239;53.404;23.492;2023-02-03T11:35:15;99393.68;;;-0.57;100.00
23341;BME280;12239;53.404;23.492;2023-02-03T11:37:46;99386.83;;;-0.55;100.00
23341;BME280;12239;53.404;23.492;2023-02-03T11:40:24;99383.20;;;-0.49;100.00
23341;BME280;12239;53.404;23.492;2023-02-03T11:43:08;99384.52;;;-0.47;100.00
23341;BME280;12239;53.404;23.492;2023-02-03T11:45:42;99382.05;;;-0.44;100.00
23341;BME280;12239;53.404;23.492;2023-02-03T11:48:17;99381.45;;;-0.39;100.00
23341;BME280;12239;53.404;23.492;2023-02-03T11:50:50;99376.09;;;-0.39;100.00
23341;BME280;12239;53.404;23.492;2023-02-03T11:53:28;99372.04;;;-0.40;100.00
23341;BME280;12239;53.404;23.492;2023-02-03T11:56:03;99369.59;;;-0.40;100.00
23341;BME280;12239;53.404;23.492;2023-02-03T12:01:23;99353.52;;;-0.42;100.00
23341;BME280;12239;53.404;23.492;2023-02-03T12:03:59;99349.35;;;-0.38;100.00
23341;BME280;12239;53.404;23.492;2023-02-03T12:06:51;99342.35;;;-0.37;100.00
23341;BME280;12239;53.404;23.492;2023-02-03T12:09:27;99332.14;;;-0.37;100.00
23341;BME280;12239;53.404;23.492;2023-02-03T12:12:08;99329.45;;;-0.37;100.00
23341;BME280;12239;53.404;23.492;2023-02-03T12:14:46;99329.30;;;-0.37;100.00
23341;BME280;12239;53.404;23.492;2023-02-03T12:17:24;99323.54;;;-0.35;100.00
23341;BME280;12239;53.404;23.492;2023-02-03T12:20:04;99319.75;;;-0.31;100.00
23341;BME280;12239;53.404;23.492;2023-02-03T12:22:35;99313.58;;;-0.31;100.00
23341;BME280;12239;53.404;23.492;2023-02-03T12:25:17;99305.83;;;-0.37;100.00
23341;BME280;12239;53.404;23.492;2023-02-03T12:27:52;99303.89;;;-0.38;100.00
23341;BME280;12239;53.404;23.492;2023-02-03T12:30:26;99299.02;;;-0.38;100.00
23341;BME280;12239;53.404;23.492;2023-02-03T12:33:23;99302.61;;;-0.36;100.00
23341;BME280;12239;53.404;23.492;2023-02-03T12:35:56;99293.35;;;-0.33;100.00
23341;BME280;12239;53.404;23.492;2023-02-03T12:38:35;99288.50;;;-0.26;100.00
23341;BME280;12239;53.404;23.492;2023-02-03T12:41:09;99287.88;;;-0.20;100.00
23341;BME280;12239;53.404;23.492;2023-02-03T12:43:43;99286.52;;;-0.17;100.00
23341;BME280;12239;53.404;23.492;2023-02-03T12:46:16;99280.80;;;-0.19;100.00
23341;BME280;12239;53.404;23.492;2023-02-03T12:48:49;99276.61;;;-0.22;100.00
23341;BME280;12239;53.404;23.492;2023-02-03T12:51:22;99276.58;;;-0.29;100.00
23341;BME280;12239;53.404;23.492;2023-02-03T12:53:55;99276.75;;;-0.36;100.00
23341;BME280;12239;53.404;23.492;2023-02-03T12:56:28;99276.42;;;-0.45;100.00
23341;BME280;12239;53.404;23.492;2023-02-03T12:59:02;99272.23;;;-0.51;100.00
23341;BME280;12239;53.404;23.492;2023-02-03T13:01:34;99267.97;;;-0.55;100.00
23341;BME280;12239;53.404;23.492;2023-02-03T13:04:05;99269.38;;;-0.54;100.00